logo
Rechercher aéroport 
image banner adimage banner adimage banner ad
image banner ad

LOAS - Spitzerberg

Situé à District Bruck An Der Leitha, Austria

ICAO - LOAS, IATA -

Données fournies par Airmate  

Information générale

Coordonnées: N48°6'6" E16°56'2"
Élévation : 623 feet MSL.
 
Voir autres Aéroports à Lower Austria

Données opérationnelles

Special qualification required
Heure actuelle UTC:
Heure actuelle locale:
Météo à : LZIB - Bratislava/M. R. Stefanik ( 22 km )
METAR: LZIB 131900Z 25002KT CAVOK 19/10 Q1023 NOSIG
TAF: TAF LZIB 131715Z 1318/1418 30009KT CAVOK TEMPO 1400/1408 VRB02KT
Voir NOTAMs / SUP AIP / TFR affectant cet aéroport [VIEW]
Fréquences de communication: [VIEW]

Pistes:

Identifiant RWYQFULongueur (ft)Largeur (ft)SurfaceLDA (ft)
15229782GRASS
33229782GRASS

Coordonnées de l'aéroport

Adresse: District Bruck An Der Leitha Austria

Autres services d'aviation

Clubs d'aviation (sans but lucratif)

Flugsportzentrum Spitzerberg

Flugsportzentrum Spitzerberg

Österreichischer Aero Club-Flugsportzentrum

Österreichischer Aero Club-Flugsportzentrum

Vue satellite de LOAS